Terminal Aerodrome Forecast
Issued by NWS

Home | Current Version | Previous Version | Text Only | Print | Product List | Glossary On
Versions: 1 2 3 4 5 6 7 8 9 10 11 12 13 14 15 16 17 18 19
666
FTUS45 KFGZ 262010 AAA
TAFSEZ
TAF AMD
KSEZ 262010Z 2620/2718 VRB05KT P6SM SCT080 BKN100
      TEMPO 2620/2624 VRB15G30KT 4SM TSRA BKN080CB
     FM270400 03008KT P6SM BKN150=

USA.gov is the U.S. government's official web portal to all federal, state and local government web resources and services.